sensor_id;sensor_type;location;lat;lon;timestamp;pressure;altitude;pressure_sealevel;temperature;humidity
28312;BME280;15572;48.810;9.148;2023-07-29T00:00:55;97706.31;;;17.26;100.00
28312;BME280;15572;48.810;9.148;2023-07-29T00:05:52;97688.84;;;17.27;100.00
28312;BME280;15572;48.810;9.148;2023-07-29T00:10:48;97695.97;;;17.28;100.00
28312;BME280;15572;48.810;9.148;2023-07-29T00:15:46;97677.34;;;17.25;100.00
28312;BME280;15572;48.810;9.148;2023-07-29T00:20:42;97681.97;;;17.24;100.00
28312;BME280;15572;48.810;9.148;2023-07-29T00:25:39;97682.28;;;17.28;100.00
28312;BME280;15572;48.810;9.148;2023-07-29T00:30:35;97679.78;;;17.26;100.00
28312;BME280;15572;48.810;9.148;2023-07-29T00:35:34;97684.44;;;17.26;100.00
28312;BME280;15572;48.810;9.148;2023-07-29T00:40:30;97685.84;;;17.29;100.00
28312;BME280;15572;48.810;9.148;2023-07-29T00:45:32;97679.69;;;17.38;100.00
28312;BME280;15572;48.810;9.148;2023-07-29T00:50:29;97676.72;;;17.40;100.00
28312;BME280;15572;48.810;9.148;2023-07-29T00:55:28;97684.41;;;17.43;100.00
28312;BME280;15572;48.810;9.148;2023-07-29T01:00:25;97684.41;;;17.43;100.00
28312;BME280;15572;48.810;9.148;2023-07-29T01:05:22;97676.47;;;17.41;100.00
28312;BME280;15572;48.810;9.148;2023-07-29T01:10:26;97672.38;;;17.44;100.00
28312;BME280;15572;48.810;9.148;2023-07-29T01:15:32;97665.25;;;17.43;100.00
28312;BME280;15572;48.810;9.148;2023-07-29T01:20:32;97663.88;;;17.40;100.00
28312;BME280;15572;48.810;9.148;2023-07-29T01:25:31;97663.88;;;17.40;100.00
28312;BME280;15572;48.810;9.148;2023-07-29T01:30:30;97658.13;;;17.42;100.00
28312;BME280;15572;48.810;9.148;2023-07-29T01:35:34;97649.91;;;17.42;100.00
28312;BME280;15572;48.810;9.148;2023-07-29T01:40:33;97656.22;;;17.42;100.00
28312;BME280;15572;48.810;9.148;2023-07-29T01:45:30;97642.88;;;17.46;100.00
28312;BME280;15572;48.810;9.148;2023-07-29T01:50:30;97656.44;;;17.57;100.00
28312;BME280;15572;48.810;9.148;2023-07-29T01:55:28;97644.25;;;17.65;100.00
28312;BME280;15572;48.810;9.148;2023-07-29T02:00:26;97639.66;;;17.71;100.00
28312;BME280;15572;48.810;9.148;2023-07-29T02:05:22;97631.50;;;17.76;100.00
28312;BME280;15572;48.810;9.148;2023-07-29T02:10:19;97627.69;;;17.77;100.00
28312;BME280;15572;48.810;9.148;2023-07-29T02:15:16;97628.19;;;17.74;100.00
28312;BME280;15572;48.810;9.148;2023-07-29T02:20:13;97619.41;;;17.72;100.00
28312;BME280;15572;48.810;9.148;2023-07-29T02:25:10;97620.13;;;17.62;100.00
28312;BME280;15572;48.810;9.148;2023-07-29T02:30:07;97618.03;;;17.52;100.00
28312;BME280;15572;48.810;9.148;2023-07-29T02:35:05;97615.25;;;17.47;100.00
28312;BME280;15572;48.810;9.148;2023-07-29T02:40:04;97624.81;;;17.45;100.00
28312;BME280;15572;48.810;9.148;2023-07-29T02:45:01;97616.34;;;17.46;100.00
28312;BME280;15572;48.810;9.148;2023-07-29T02:49:57;97621.25;;;17.44;100.00
28312;BME280;15572;48.810;9.148;2023-07-29T02:54:54;97619.03;;;17.41;100.00
28312;BME280;15572;48.810;9.148;2023-07-29T02:59:52;97613.78;;;17.40;100.00
28312;BME280;15572;48.810;9.148;2023-07-29T03:04:48;97599.03;;;17.41;100.00
28312;BME280;15572;48.810;9.148;2023-07-29T03:09:45;97591.66;;;17.41;100.00
28312;BME280;15572;48.810;9.148;2023-07-29T03:14:41;97592.75;;;17.40;100.00
28312;BME280;15572;48.810;9.148;2023-07-29T03:19:39;97594.13;;;17.43;100.00
28312;BME280;15572;48.810;9.148;2023-07-29T03:24:36;97587.56;;;17.44;100.00
28312;BME280;15572;48.810;9.148;2023-07-29T03:29:32;97579.44;;;17.49;100.00
28312;BME280;15572;48.810;9.148;2023-07-29T03:34:29;97591.25;;;17.54;100.00
28312;BME280;15572;48.810;9.148;2023-07-29T03:39:26;97583.06;;;17.54;100.00
28312;BME280;15572;48.810;9.148;2023-07-29T03:44:23;97574.59;;;17.56;100.00
28312;BME280;15572;48.810;9.148;2023-07-29T03:49:19;97581.72;;;17.57;100.00
28312;BME280;15572;48.810;9.148;2023-07-29T03:54:16;97590.50;;;17.59;100.00
28312;BME280;15572;48.810;9.148;2023-07-29T03:59:14;97595.22;;;17.63;100.00
28312;BME280;15572;48.810;9.148;2023-07-29T04:04:10;97594.91;;;17.60;100.00
28312;BME280;15572;48.810;9.148;2023-07-29T04:09:07;97579.34;;;17.60;100.00
28312;BME280;15572;48.810;9.148;2023-07-29T04:14:04;97586.09;;;17.58;100.00
28312;BME280;15572;48.810;9.148;2023-07-29T04:19:02;97576.50;;;17.55;100.00
28312;BME280;15572;48.810;9.148;2023-07-29T04:23:58;97573.53;;;17.57;100.00
28312;BME280;15572;48.810;9.148;2023-07-29T04:28:55;97588.03;;;17.57;100.00
28312;BME280;15572;48.810;9.148;2023-07-29T04:33:51;97593.22;;;17.59;100.00
28312;BME280;15572;48.810;9.148;2023-07-29T04:38:49;97593.06;;;17.65;100.00
28312;BME280;15572;48.810;9.148;2023-07-29T04:43:46;97605.75;;;17.72;100.00
28312;BME280;15572;48.810;9.148;2023-07-29T04:48:44;97622.66;;;17.68;100.00
28312;BME280;15572;48.810;9.148;2023-07-29T04:53:41;97626.16;;;17.64;100.00
28312;BME280;15572;48.810;9.148;2023-07-29T04:58:39;97628.06;;;17.63;100.00
28312;BME280;15572;48.810;9.148;2023-07-29T05:03:35;97604.19;;;17.59;100.00
28312;BME280;15572;48.810;9.148;2023-07-29T05:08:35;97607.19;;;17.57;100.00
28312;BME280;15572;48.810;9.148;2023-07-29T05:13:31;97593.50;;;17.57;100.00
28312;BME280;15572;48.810;9.148;2023-07-29T05:18:29;97584.56;;;17.62;100.00
28312;BME280;15572;48.810;9.148;2023-07-29T05:23:25;97581.53;;;17.63;100.00
28312;BME280;15572;48.810;9.148;2023-07-29T05:28:22;97592.81;;;17.67;100.00
28312;BME280;15572;48.810;9.148;2023-07-29T05:33:18;97602.41;;;17.70;100.00
28312;BME280;15572;48.810;9.148;2023-07-29T05:38:16;97598.66;;;17.76;100.00
28312;BME280;15572;48.810;9.148;2023-07-29T05:43:12;97600.63;;;17.80;100.00
28312;BME280;15572;48.810;9.148;2023-07-29T05:48:09;97596.03;;;17.86;100.00
28312;BME280;15572;48.810;9.148;2023-07-29T05:53:06;97599.16;;;17.94;100.00
28312;BME280;15572;48.810;9.148;2023-07-29T05:58:04;97583.13;;;18.08;100.00
28312;BME280;15572;48.810;9.148;2023-07-29T06:03:01;97579.69;;;18.23;100.00
28312;BME280;15572;48.810;9.148;2023-07-29T06:07:57;97580.16;;;18.41;100.00
28312;BME280;15572;48.810;9.148;2023-07-29T06:12:54;97583.31;;;18.55;100.00
28312;BME280;15572;48.810;9.148;2023-07-29T06:17:51;97586.16;;;18.70;100.00
28312;BME280;15572;48.810;9.148;2023-07-29T06:22:48;97584.88;;;18.83;100.00
28312;BME280;15572;48.810;9.148;2023-07-29T06:27:44;97586.84;;;18.87;100.00
28312;BME280;15572;48.810;9.148;2023-07-29T06:32:41;97595.66;;;18.95;100.00
28312;BME280;15572;48.810;9.148;2023-07-29T06:37:39;97601.69;;;18.97;100.00
28312;BME280;15572;48.810;9.148;2023-07-29T06:42:35;97606.88;;;18.93;100.00
28312;BME280;15572;48.810;9.148;2023-07-29T06:47:32;97609.91;;;18.97;100.00
28312;BME280;15572;48.810;9.148;2023-07-29T06:52:28;97605.00;;;18.99;100.00
28312;BME280;15572;48.810;9.148;2023-07-29T06:57:26;97609.13;;;18.96;100.00
28312;BME280;15572;48.810;9.148;2023-07-29T07:02:26;97616.81;;;18.99;100.00
28312;BME280;15572;48.810;9.148;2023-07-29T07:07:22;97627.78;;;18.99;100.00
28312;BME280;15572;48.810;9.148;2023-07-29T07:12:19;97628.59;;;19.00;100.00
28312;BME280;15572;48.810;9.148;2023-07-29T07:17:16;97635.13;;;18.93;100.00
28312;BME280;15572;48.810;9.148;2023-07-29T07:22:13;97642.53;;;18.93;100.00
28312;BME280;15572;48.810;9.148;2023-07-29T07:27:09;97631.53;;;18.88;100.00
28312;BME280;15572;48.810;9.148;2023-07-29T07:32:06;97640.09;;;18.97;100.00
28312;BME280;15572;48.810;9.148;2023-07-29T07:37:04;97642.06;;;19.01;100.00
28312;BME280;15572;48.810;9.148;2023-07-29T07:42:01;97637.69;;;19.05;100.00
28312;BME280;15572;48.810;9.148;2023-07-29T07:46:58;97634.22;;;19.20;100.00
28312;BME280;15572;48.810;9.148;2023-07-29T07:51:54;97630.09;;;19.17;100.00
28312;BME280;15572;48.810;9.148;2023-07-29T07:56:52;97637.50;;;19.17;100.00
28312;BME280;15572;48.810;9.148;2023-07-29T08:01:48;97618.34;;;19.22;100.00
28312;BME280;15572;48.810;9.148;2023-07-29T08:06:45;97631.06;;;19.43;100.00
28312;BME280;15572;48.810;9.148;2023-07-29T08:11:41;97650.38;;;19.53;100.00
28312;BME280;15572;48.810;9.148;2023-07-29T08:16:39;97652.63;;;19.71;100.00
28312;BME280;15572;48.810;9.148;2023-07-29T08:21:36;97665.88;;;19.80;100.00
28312;BME280;15572;48.810;9.148;2023-07-29T08:26:32;97657.66;;;19.85;100.00
28312;BME280;15572;48.810;9.148;2023-07-29T08:31:29;97656.31;;;19.92;100.00
28312;BME280;15572;48.810;9.148;2023-07-29T08:36:30;97656.06;;;20.04;100.00
28312;BME280;15572;48.810;9.148;2023-07-29T08:41:30;97657.50;;;20.22;100.00
28312;BME280;15572;48.810;9.148;2023-07-29T08:46:29;97658.91;;;20.29;100.00
28312;BME280;15572;48.810;9.148;2023-07-29T08:51:27;97649.38;;;20.67;100.00
28312;BME280;15572;48.810;9.148;2023-07-29T08:56:25;97649.34;;;21.02;100.00
28312;BME280;15572;48.810;9.148;2023-07-29T09:01:23;97665.28;;;21.41;100.00
28312;BME280;15572;48.810;9.148;2023-07-29T09:06:19;97656.41;;;21.64;100.00
28312;BME280;15572;48.810;9.148;2023-07-29T09:11:18;97651.94;;;21.83;100.00
28312;BME280;15572;48.810;9.148;2023-07-29T09:16:17;97642.22;;;22.11;100.00
28312;BME280;15572;48.810;9.148;2023-07-29T09:21:15;97639.44;;;22.11;100.00
28312;BME280;15572;48.810;9.148;2023-07-29T09:26:11;97645.06;;;22.40;100.00
28312;BME280;15572;48.810;9.148;2023-07-29T09:31:20;97643.00;;;22.56;100.00
28312;BME280;15572;48.810;9.148;2023-07-29T09:36:16;97637.31;;;22.81;100.00
28312;BME280;15572;48.810;9.148;2023-07-29T09:41:13;97640.34;;;23.14;100.00
28312;BME280;15572;48.810;9.148;2023-07-29T09:46:11;97653.03;;;22.86;100.00
28312;BME280;15572;48.810;9.148;2023-07-29T09:51:13;97636.72;;;22.89;100.00
28312;BME280;15572;48.810;9.148;2023-07-29T09:56:09;97637.59;;;23.14;98.38
28312;BME280;15572;48.810;9.148;2023-07-29T10:01:06;97633.50;;;23.11;92.08
28312;BME280;15572;48.810;9.148;2023-07-29T10:06:04;97626.06;;;23.35;95.02
28312;BME280;15572;48.810;9.148;2023-07-29T10:11:02;97630.63;;;23.74;94.05
28312;BME280;15572;48.810;9.148;2023-07-29T10:15:59;97628.22;;;23.91;89.76
28312;BME280;15572;48.810;9.148;2023-07-29T10:20:59;97643.25;;;23.56;95.21
28312;BME280;15572;48.810;9.148;2023-07-29T10:26:03;97658.09;;;22.68;100.00
28312;BME280;15572;48.810;9.148;2023-07-29T10:31:00;97647.63;;;22.27;100.00
28312;BME280;15572;48.810;9.148;2023-07-29T10:35:57;97654.56;;;22.14;100.00
28312;BME280;15572;48.810;9.148;2023-07-29T10:40:55;97642.47;;;22.10;100.00
28312;BME280;15572;48.810;9.148;2023-07-29T10:45:55;97654.28;;;22.20;100.00
28312;BME280;15572;48.810;9.148;2023-07-29T10:51:21;97662.69;;;22.39;100.00
28312;BME280;15572;48.810;9.148;2023-07-29T10:56:25;97667.44;;;22.78;99.39
28312;BME280;15572;48.810;9.148;2023-07-29T11:01:28;97642.97;;;23.00;99.19
28312;BME280;15572;48.810;9.148;2023-07-29T11:06:25;97647.72;;;23.52;97.58
28312;BME280;15572;48.810;9.148;2023-07-29T11:11:22;97658.44;;;24.49;88.15
28312;BME280;15572;48.810;9.148;2023-07-29T11:16:19;97645.06;;;25.07;83.45
28312;BME280;15572;48.810;9.148;2023-07-29T11:21:17;97654.41;;;24.41;79.81
28312;BME280;15572;48.810;9.148;2023-07-29T11:26:14;97656.84;;;24.00;83.90
28312;BME280;15572;48.810;9.148;2023-07-29T11:31:10;97651.16;;;23.91;82.56
28312;BME280;15572;48.810;9.148;2023-07-29T11:36:18;97655.56;;;23.92;81.05
28312;BME280;15572;48.810;9.148;2023-07-29T11:41:19;97634.75;;;23.76;81.68
28312;BME280;15572;48.810;9.148;2023-07-29T11:46:20;97630.44;;;23.89;80.46
28312;BME280;15572;48.810;9.148;2023-07-29T11:51:18;97629.66;;;24.07;83.67
28312;BME280;15572;48.810;9.148;2023-07-29T11:56:15;97639.81;;;24.54;79.24
28312;BME280;15572;48.810;9.148;2023-07-29T12:01:13;97638.16;;;24.91;77.09
28312;BME280;15572;48.810;9.148;2023-07-29T12:06:09;97629.66;;;25.33;71.85
28312;BME280;15572;48.810;9.148;2023-07-29T12:11:08;97620.75;;;25.50;74.66
28312;BME280;15572;48.810;9.148;2023-07-29T12:16:04;97606.28;;;26.21;69.46
28312;BME280;15572;48.810;9.148;2023-07-29T12:21:03;97621.72;;;26.86;67.35
28312;BME280;15572;48.810;9.148;2023-07-29T12:25:59;97601.78;;;26.83;58.07
28312;BME280;15572;48.810;9.148;2023-07-29T12:30:57;97596.25;;;27.06;53.87
28312;BME280;15572;48.810;9.148;2023-07-29T12:35:54;97602.91;;;26.82;54.60
28312;BME280;15572;48.810;9.148;2023-07-29T12:40:50;97601.28;;;26.59;52.03
28312;BME280;15572;48.810;9.148;2023-07-29T12:45:49;97601.63;;;27.02;49.80
28312;BME280;15572;48.810;9.148;2023-07-29T12:50:47;97592.19;;;27.74;46.68
28312;BME280;15572;48.810;9.148;2023-07-29T12:55:43;97589.56;;;28.34;44.45
28312;BME280;15572;48.810;9.148;2023-07-29T13:00:39;97581.63;;;27.93;46.18
28312;BME280;15572;48.810;9.148;2023-07-29T13:05:36;97585.16;;;27.76;48.10
28312;BME280;15572;48.810;9.148;2023-07-29T13:10:34;97577.31;;;28.35;45.27
28312;BME280;15572;48.810;9.148;2023-07-29T13:15:30;97580.53;;;29.14;43.79
28312;BME280;15572;48.810;9.148;2023-07-29T13:20:27;97584.06;;;29.49;42.67
28312;BME280;15572;48.810;9.148;2023-07-29T13:25:24;97588.09;;;29.69;43.56
28312;BME280;15572;48.810;9.148;2023-07-29T13:30:22;97581.38;;;28.98;43.89
28312;BME280;15572;48.810;9.148;2023-07-29T13:35:18;97580.56;;;28.20;46.35
28312;BME280;15572;48.810;9.148;2023-07-29T13:40:15;97577.47;;;27.42;49.45
28312;BME280;15572;48.810;9.148;2023-07-29T13:45:12;97578.38;;;26.76;50.50
28312;BME280;15572;48.810;9.148;2023-07-29T13:50:10;97576.41;;;26.76;49.68
28312;BME280;15572;48.810;9.148;2023-07-29T13:55:07;97567.81;;;26.42;50.60
28312;BME280;15572;48.810;9.148;2023-07-29T14:00:05;97564.91;;;26.11;52.80
28312;BME280;15572;48.810;9.148;2023-07-29T14:05:02;97582.97;;;26.09;53.44
28312;BME280;15572;48.810;9.148;2023-07-29T14:09:59;97579.66;;;26.34;53.38
28312;BME280;15572;48.810;9.148;2023-07-29T14:14:56;97582.72;;;26.68;52.07
28312;BME280;15572;48.810;9.148;2023-07-29T14:19:52;97591.38;;;27.11;50.59
28312;BME280;15572;48.810;9.148;2023-07-29T14:24:49;97594.59;;;27.05;51.02
28312;BME280;15572;48.810;9.148;2023-07-29T14:29:47;97589.34;;;26.81;52.22
28312;BME280;15572;48.810;9.148;2023-07-29T14:34:43;97584.53;;;26.51;53.65
28312;BME280;15572;48.810;9.148;2023-07-29T14:39:39;97578.38;;;26.04;56.25
28312;BME280;15572;48.810;9.148;2023-07-29T14:44:36;97581.53;;;26.11;55.98
28312;BME280;15572;48.810;9.148;2023-07-29T14:49:34;97579.41;;;25.94;57.51
28312;BME280;15572;48.810;9.148;2023-07-29T14:54:30;97585.28;;;25.79;57.08
28312;BME280;15572;48.810;9.148;2023-07-29T14:59:27;97576.97;;;25.66;58.05
28312;BME280;15572;48.810;9.148;2023-07-29T15:04:23;97575.53;;;25.68;60.03
28312;BME280;15572;48.810;9.148;2023-07-29T15:09:21;97576.94;;;25.38;61.00
28312;BME280;15572;48.810;9.148;2023-07-29T15:14:18;97580.94;;;25.46;61.22
28312;BME280;15572;48.810;9.148;2023-07-29T15:19:14;97578.78;;;25.97;57.07
28312;BME280;15572;48.810;9.148;2023-07-29T15:24:11;97581.06;;;25.82;58.27
28312;BME280;15572;48.810;9.148;2023-07-29T15:29:08;97571.81;;;26.00;59.66
28312;BME280;15572;48.810;9.148;2023-07-29T15:34:05;97571.13;;;26.30;58.83
28312;BME280;15572;48.810;9.148;2023-07-29T15:39:02;97572.72;;;26.45;57.80
28312;BME280;15572;48.810;9.148;2023-07-29T15:43:59;97577.94;;;26.24;59.64
28312;BME280;15572;48.810;9.148;2023-07-29T15:48:56;97565.38;;;25.77;60.85
28312;BME280;15572;48.810;9.148;2023-07-29T15:53:54;97568.97;;;25.64;61.95
28312;BME280;15572;48.810;9.148;2023-07-29T15:58:51;97558.78;;;25.46;62.61
28312;BME280;15572;48.810;9.148;2023-07-29T16:03:47;97561.72;;;25.22;63.29
28312;BME280;15572;48.810;9.148;2023-07-29T16:08:45;97557.03;;;25.36;63.13
28312;BME280;15572;48.810;9.148;2023-07-29T16:13:42;97550.69;;;25.36;64.10
28312;BME280;15572;48.810;9.148;2023-07-29T16:18:38;97539.81;;;25.53;62.25
28312;BME280;15572;48.810;9.148;2023-07-29T16:23:35;97543.94;;;25.69;62.18
28312;BME280;15572;48.810;9.148;2023-07-29T16:28:33;97542.84;;;25.92;59.31
28312;BME280;15572;48.810;9.148;2023-07-29T16:33:29;97541.00;;;26.02;56.73
28312;BME280;15572;48.810;9.148;2023-07-29T16:38:26;97551.69;;;25.94;55.04
28312;BME280;15572;48.810;9.148;2023-07-29T16:43:22;97537.66;;;25.91;55.10
28312;BME280;15572;48.810;9.148;2023-07-29T16:48:21;97546.97;;;25.95;56.04
28312;BME280;15572;48.810;9.148;2023-07-29T16:53:18;97543.56;;;25.98;54.99
28312;BME280;15572;48.810;9.148;2023-07-29T16:58:15;97539.38;;;26.01;53.71
28312;BME280;15572;48.810;9.148;2023-07-29T17:03:11;97548.31;;;25.70;54.81
28312;BME280;15572;48.810;9.148;2023-07-29T17:08:09;97545.66;;;25.51;56.19
28312;BME280;15572;48.810;9.148;2023-07-29T17:13:06;97538.78;;;25.35;57.24
28312;BME280;15572;48.810;9.148;2023-07-29T17:18:02;97553.22;;;25.19;57.94
28312;BME280;15572;48.810;9.148;2023-07-29T17:22:59;97563.97;;;25.06;59.04
28312;BME280;15572;48.810;9.148;2023-07-29T17:27:57;97573.47;;;25.00;59.86
28312;BME280;15572;48.810;9.148;2023-07-29T17:32:53;97565.94;;;24.87;60.60
28312;BME280;15572;48.810;9.148;2023-07-29T17:37:49;97591.50;;;24.47;68.01
28312;BME280;15572;48.810;9.148;2023-07-29T17:42:46;97594.25;;;23.67;75.08
28312;BME280;15572;48.810;9.148;2023-07-29T17:47:44;97597.81;;;23.43;79.26
28312;BME280;15572;48.810;9.148;2023-07-29T17:52:40;97597.44;;;23.26;83.15
28312;BME280;15572;48.810;9.148;2023-07-29T17:57:37;97605.00;;;22.87;87.98
28312;BME280;15572;48.810;9.148;2023-07-29T18:02:33;97603.38;;;22.86;89.47
28312;BME280;15572;48.810;9.148;2023-07-29T18:07:31;97589.63;;;22.81;90.73
28312;BME280;15572;48.810;9.148;2023-07-29T18:12:27;97593.09;;;22.57;93.33
28312;BME280;15572;48.810;9.148;2023-07-29T18:17:24;97615.50;;;22.46;95.17
28312;BME280;15572;48.810;9.148;2023-07-29T18:22:20;97608.41;;;22.35;97.53
28312;BME280;15572;48.810;9.148;2023-07-29T18:27:18;97615.75;;;22.10;98.45
28312;BME280;15572;48.810;9.148;2023-07-29T18:32:15;97629.28;;;22.02;98.59
28312;BME280;15572;48.810;9.148;2023-07-29T18:37:11;97633.44;;;21.99;98.19
28312;BME280;15572;48.810;9.148;2023-07-29T18:42:08;97638.19;;;21.78;100.00
28312;BME280;15572;48.810;9.148;2023-07-29T18:47:06;97626.38;;;21.68;100.00
28312;BME280;15572;48.810;9.148;2023-07-29T18:52:03;97620.91;;;21.58;100.00
28312;BME280;15572;48.810;9.148;2023-07-29T18:57:00;97620.66;;;21.44;100.00
28312;BME280;15572;48.810;9.148;2023-07-29T19:01:57;97616.03;;;21.34;100.00
28312;BME280;15572;48.810;9.148;2023-07-29T19:06:55;97607.22;;;21.27;100.00
28312;BME280;15572;48.810;9.148;2023-07-29T19:11:51;97616.06;;;21.24;100.00
28312;BME280;15572;48.810;9.148;2023-07-29T19:16:48;97612.75;;;21.22;100.00
28312;BME280;15572;48.810;9.148;2023-07-29T19:21:45;97632.03;;;21.17;100.00
28312;BME280;15572;48.810;9.148;2023-07-29T19:26:42;97632.84;;;21.18;100.00
28312;BME280;15572;48.810;9.148;2023-07-29T19:31:39;97635.00;;;21.11;100.00
28312;BME280;15572;48.810;9.148;2023-07-29T19:36:36;97630.63;;;20.99;100.00
28312;BME280;15572;48.810;9.148;2023-07-29T19:41:34;97627.34;;;20.97;100.00
28312;BME280;15572;48.810;9.148;2023-07-29T19:46:32;97626.25;;;20.93;100.00
28312;BME280;15572;48.810;9.148;2023-07-29T19:51:29;97622.38;;;20.84;100.00
28312;BME280;15572;48.810;9.148;2023-07-29T19:56:25;97632.31;;;20.80;100.00
28312;BME280;15572;48.810;9.148;2023-07-29T20:01:22;97624.88;;;20.76;100.00
28312;BME280;15572;48.810;9.148;2023-07-29T20:06:20;97622.66;;;20.68;100.00
28312;BME280;15572;48.810;9.148;2023-07-29T20:11:16;97621.88;;;20.67;100.00
28312;BME280;15572;48.810;9.148;2023-07-29T20:16:12;97627.91;;;20.69;100.00
28312;BME280;15572;48.810;9.148;2023-07-29T20:21:09;97623.22;;;20.75;100.00
28312;BME280;15572;48.810;9.148;2023-07-29T20:26:07;97621.88;;;20.77;100.00
28312;BME280;15572;48.810;9.148;2023-07-29T20:31:04;97620.75;;;20.83;100.00
28312;BME280;15572;48.810;9.148;2023-07-29T20:36:00;97624.31;;;20.79;100.00
28312;BME280;15572;48.810;9.148;2023-07-29T20:40:57;97626.81;;;20.75;100.00
28312;BME280;15572;48.810;9.148;2023-07-29T20:45:54;97635.63;;;20.67;100.00
28312;BME280;15572;48.810;9.148;2023-07-29T20:50:51;97632.03;;;20.62;100.00
28312;BME280;15572;48.810;9.148;2023-07-29T20:55:48;97640.81;;;20.69;100.00
28312;BME280;15572;48.810;9.148;2023-07-29T21:00:45;97648.81;;;20.70;100.00
28312;BME280;15572;48.810;9.148;2023-07-29T21:05:42;97639.16;;;20.68;100.00
28312;BME280;15572;48.810;9.148;2023-07-29T21:10:40;97639.47;;;20.61;100.00
28312;BME280;15572;48.810;9.148;2023-07-29T21:15:37;97650.97;;;20.58;100.00
28312;BME280;15572;48.810;9.148;2023-07-29T21:20:34;97643.56;;;20.53;100.00
28312;BME280;15572;48.810;9.148;2023-07-29T21:25:32;97631.19;;;20.51;100.00
28312;BME280;15572;48.810;9.148;2023-07-29T21:30:29;97646.88;;;20.55;100.00
28312;BME280;15572;48.810;9.148;2023-07-29T21:35:26;97655.94;;;20.56;100.00
28312;BME280;15572;48.810;9.148;2023-07-29T21:40:22;97651.81;;;20.58;100.00
28312;BME280;15572;48.810;9.148;2023-07-29T21:45:20;97659.53;;;20.62;100.00
28312;BME280;15572;48.810;9.148;2023-07-29T21:50:17;97665.88;;;20.67;100.00
28312;BME280;15572;48.810;9.148;2023-07-29T21:55:15;97665.88;;;20.67;100.00
28312;BME280;15572;48.810;9.148;2023-07-29T22:00:12;97678.78;;;20.62;100.00
28312;BME280;15572;48.810;9.148;2023-07-29T22:05:10;97689.22;;;20.70;100.00
28312;BME280;15572;48.810;9.148;2023-07-29T22:10:07;97673.56;;;20.70;100.00
28312;BME280;15572;48.810;9.148;2023-07-29T22:15:05;97672.16;;;20.57;100.00
28312;BME280;15572;48.810;9.148;2023-07-29T22:20:02;97667.75;;;20.51;100.00
28312;BME280;15572;48.810;9.148;2023-07-29T22:25:01;97676.81;;;20.47;100.00
28312;BME280;15572;48.810;9.148;2023-07-29T22:29:57;97677.38;;;20.54;100.00
28312;BME280;15572;48.810;9.148;2023-07-29T22:34:54;97693.84;;;20.34;100.00
28312;BME280;15572;48.810;9.148;2023-07-29T22:39:50;97706.28;;;19.94;100.00
28312;BME280;15572;48.810;9.148;2023-07-29T22:44:48;97693.47;;;19.58;100.00
28312;BME280;15572;48.810;9.148;2023-07-29T22:49:44;97690.03;;;19.41;100.00
28312;BME280;15572;48.810;9.148;2023-07-29T22:54:41;97701.53;;;19.32;100.00
28312;BME280;15572;48.810;9.148;2023-07-29T22:59:37;97735.72;;;19.20;100.00
28312;BME280;15572;48.810;9.148;2023-07-29T23:04:35;97775.84;;;18.45;100.00
28312;BME280;15572;48.810;9.148;2023-07-29T23:09:31;97752.63;;;18.04;100.00
28312;BME280;15572;48.810;9.148;2023-07-29T23:14:28;97731.06;;;17.91;100.00
28312;BME280;15572;48.810;9.148;2023-07-29T23:19:24;97716.31;;;17.92;100.00
28312;BME280;15572;48.810;9.148;2023-07-29T23:24:22;97745.53;;;17.87;100.00
28312;BME280;15572;48.810;9.148;2023-07-29T23:29:19;97710.97;;;17.81;100.00
28312;BME280;15572;48.810;9.148;2023-07-29T23:34:15;97722.78;;;17.48;100.00
28312;BME280;15572;48.810;9.148;2023-07-29T23:39:12;97712.38;;;17.11;100.00
28312;BME280;15572;48.810;9.148;2023-07-29T23:44:10;97672.88;;;16.86;100.00
28312;BME280;15572;48.810;9.148;2023-07-29T23:49:06;97661.13;;;17.02;100.00
28312;BME280;15572;48.810;9.148;2023-07-29T23:54:03;97667.09;;;16.99;100.00
28312;BME280;15572;48.810;9.148;2023-07-29T23:58:59;97673.78;;;16.91;100.00
